sensor_id;sensor_type;location;lat;lon;timestamp;pressure;altitude;pressure_sealevel;temperature;humidity
12358;BME280;6243;51.244;6.774;2023-04-30T00:00:15;152424.63;;;19.64;51.25
12358;BME280;6243;51.244;6.774;2023-04-30T00:02:42;152381.09;;;19.47;51.62
12358;BME280;6243;51.244;6.774;2023-04-30T00:05:08;152345.19;;;19.33;51.47
12358;BME280;6243;51.244;6.774;2023-04-30T00:07:33;152304.25;;;19.17;52.07
12358;BME280;6243;51.244;6.774;2023-04-30T00:09:59;152361.88;;;19.40;51.34
12358;BME280;6243;51.244;6.774;2023-04-30T00:12:24;152387.50;;;19.50;51.41
12358;BME280;6243;51.244;6.774;2023-04-30T00:14:50;152409.25;;;19.58;51.20
12358;BME280;6243;51.244;6.774;2023-04-30T00:17:16;152377.28;;;19.46;51.45
12358;BME280;6243;51.244;6.774;2023-04-30T00:19:42;152420.78;;;19.63;51.26
12358;BME280;6243;51.244;6.774;2023-04-30T00:22:08;152388.78;;;19.50;51.53
12358;BME280;6243;51.244;6.774;2023-04-30T00:24:33;152374.69;;;19.45;51.46
12358;BME280;6243;51.244;6.774;2023-04-30T00:26:59;152429.75;;;19.66;51.19
12358;BME280;6243;51.244;6.774;2023-04-30T00:29:25;152381.09;;;19.47;51.03
12358;BME280;6243;51.244;6.774;2023-04-30T00:31:50;152338.78;;;19.31;51.70
12358;BME280;6243;51.244;6.774;2023-04-30T00:34:16;152351.66;;;19.36;51.67
12358;BME280;6243;51.244;6.774;2023-04-30T00:36:43;152383.69;;;19.48;51.55
12358;BME280;6243;51.244;6.774;2023-04-30T00:39:08;152282.50;;;19.08;52.03
12358;BME280;6243;51.244;6.774;2023-04-30T00:41:34;152277.38;;;19.06;51.66
12358;BME280;6243;51.244;6.774;2023-04-30T00:43:59;152210.84;;;18.80;52.44
12358;BME280;6243;51.244;6.774;2023-04-30T00:46:25;152264.59;;;19.01;52.35
12358;BME280;6243;51.244;6.774;2023-04-30T00:48:50;152246.66;;;18.94;52.48
12358;BME280;6243;51.244;6.774;2023-04-30T00:51:16;152282.50;;;19.08;52.09
12358;BME280;6243;51.244;6.774;2023-04-30T00:53:43;152232.63;;;18.89;52.59
12358;BME280;6243;51.244;6.774;2023-04-30T00:56:08;152226.22;;;18.86;52.49
12358;BME280;6243;51.244;6.774;2023-04-30T00:58:34;152221.09;;;18.84;52.37
12358;BME280;6243;51.244;6.774;2023-04-30T01:01:00;152186.56;;;18.71;52.79
12358;BME280;6243;51.244;6.774;2023-04-30T01:03:26;152186.56;;;18.71;53.02
12358;BME280;6243;51.244;6.774;2023-04-30T01:05:52;152038.13;;;18.12;54.23
12358;BME280;6243;51.244;6.774;2023-04-30T01:08:18;152035.59;;;18.11;54.24
12358;BME280;6243;51.244;6.774;2023-04-30T01:10:51;152090.56;;;18.33;53.87
12358;BME280;6243;51.244;6.774;2023-04-30T01:13:23;152063.72;;;18.22;53.94
12358;BME280;6243;51.244;6.774;2023-04-30T01:15:57;151976.78;;;17.88;54.81
12358;BME280;6243;51.244;6.774;2023-04-30T01:18:27;152065.00;;;18.23;53.95
12358;BME280;6243;51.244;6.774;2023-04-30T01:20:57;152058.59;;;18.20;53.84
12358;BME280;6243;51.244;6.774;2023-04-30T01:23:39;152134.13;;;18.50;53.40
12358;BME280;6243;51.244;6.774;2023-04-30T01:26:10;152049.63;;;18.17;53.77
12358;BME280;6243;51.244;6.774;2023-04-30T01:28:41;152072.66;;;18.26;53.46
12358;BME280;6243;51.244;6.774;2023-04-30T01:31:11;152044.53;;;18.15;54.02
12358;BME280;6243;51.244;6.774;2023-04-30T01:33:37;152053.50;;;18.18;53.73
12358;BME280;6243;51.244;6.774;2023-04-30T01:36:16;152047.09;;;18.16;53.75
12358;BME280;6243;51.244;6.774;2023-04-30T01:38:59;151935.88;;;17.72;55.03
12358;BME280;6243;51.244;6.774;2023-04-30T01:41:30;152058.59;;;18.20;54.18
12358;BME280;6243;51.244;6.774;2023-04-30T01:44:09;152079.06;;;18.28;54.03
12358;BME280;6243;51.244;6.774;2023-04-30T01:46:37;152099.53;;;18.36;53.81
12358;BME280;6243;51.244;6.774;2023-04-30T01:49:09;152026.63;;;18.08;54.30
12358;BME280;6243;51.244;6.774;2023-04-30T01:51:40;151983.19;;;17.91;54.42
12358;BME280;6243;51.244;6.774;2023-04-30T01:54:13;152040.72;;;18.13;54.15
12358;BME280;6243;51.244;6.774;2023-04-30T01:56:43;152013.81;;;18.03;54.24
12358;BME280;6243;51.244;6.774;2023-04-30T01:59:12;152021.50;;;18.06;53.52
12358;BME280;6243;51.244;6.774;2023-04-30T02:04:25;151911.56;;;17.62;54.60
12358;BME280;6243;51.244;6.774;2023-04-30T02:06:51;151958.88;;;17.81;54.25
12358;BME280;6243;51.244;6.774;2023-04-30T02:09:16;151960.16;;;17.82;54.27
12358;BME280;6243;51.244;6.774;2023-04-30T02:11:42;151925.66;;;17.68;54.35
12358;BME280;6243;51.244;6.774;2023-04-30T02:14:07;151877.00;;;17.49;54.33
12358;BME280;6243;51.244;6.774;2023-04-30T02:16:34;151851.44;;;17.39;54.18
12358;BME280;6243;51.244;6.774;2023-04-30T02:19:00;151860.41;;;17.42;54.22
12358;BME280;6243;51.244;6.774;2023-04-30T02:21:25;151857.81;;;17.41;54.22
12358;BME280;6243;51.244;6.774;2023-04-30T02:23:51;151870.63;;;17.46;54.31
12358;BME280;6243;51.244;6.774;2023-04-30T02:26:17;151856.59;;;17.41;54.88
12358;BME280;6243;51.244;6.774;2023-04-30T02:28:43;151834.81;;;17.32;54.60
12358;BME280;6243;51.244;6.774;2023-04-30T02:31:08;151837.41;;;17.33;54.60
12358;BME280;6243;51.244;6.774;2023-04-30T02:33:35;151806.72;;;17.21;54.87
12358;BME280;6243;51.244;6.774;2023-04-30T02:36:01;151838.69;;;17.34;55.01
12358;BME280;6243;51.244;6.774;2023-04-30T02:38:26;151825.91;;;17.29;55.03
12358;BME280;6243;51.244;6.774;2023-04-30T02:40:52;151896.25;;;17.56;54.94
12358;BME280;6243;51.244;6.774;2023-04-30T02:43:17;151896.25;;;17.56;54.84
12358;BME280;6243;51.244;6.774;2023-04-30T02:45:43;151877.00;;;17.49;54.60
12358;BME280;6243;51.244;6.774;2023-04-30T02:48:08;151845.09;;;17.36;54.97
12358;BME280;6243;51.244;6.774;2023-04-30T02:50:35;151871.91;;;17.47;55.17
12358;BME280;6243;51.244;6.774;2023-04-30T02:53:01;151938.41;;;17.73;54.44
12358;BME280;6243;51.244;6.774;2023-04-30T02:55:26;151921.78;;;17.66;54.72
12358;BME280;6243;51.244;6.774;2023-04-30T02:57:52;151891.16;;;17.54;54.29
12358;BME280;6243;51.244;6.774;2023-04-30T03:00:17;151809.31;;;17.22;54.69
12358;BME280;6243;51.244;6.774;2023-04-30T03:02:43;151885.97;;;17.52;54.48
12358;BME280;6243;51.244;6.774;2023-04-30T03:05:09;151871.91;;;17.47;54.24
12358;BME280;6243;51.244;6.774;2023-04-30T03:07:36;151799.03;;;17.18;53.46
12358;BME280;6243;51.244;6.774;2023-04-30T03:10:02;151814.41;;;17.24;54.41
12358;BME280;6243;51.244;6.774;2023-04-30T03:12:27;151756.91;;;17.01;54.56
12358;BME280;6243;51.244;6.774;2023-04-30T03:14:53;151795.22;;;17.17;54.66
12358;BME280;6243;51.244;6.774;2023-04-30T03:17:18;151801.63;;;17.19;54.97
12358;BME280;6243;51.244;6.774;2023-04-30T03:19:44;151839.94;;;17.34;54.84
12358;BME280;6243;51.244;6.774;2023-04-30T03:22:09;151847.63;;;17.37;54.92
12358;BME280;6243;51.244;6.774;2023-04-30T03:24:36;151819.50;;;17.26;54.46
12358;BME280;6243;51.244;6.774;2023-04-30T03:27:02;151791.41;;;17.15;54.81
12358;BME280;6243;51.244;6.774;2023-04-30T03:29:27;151816.94;;;17.25;54.89
12358;BME280;6243;51.244;6.774;2023-04-30T03:31:53;151792.69;;;17.16;55.06
12358;BME280;6243;51.244;6.774;2023-04-30T03:34:18;151767.13;;;17.06;55.63
12358;BME280;6243;51.244;6.774;2023-04-30T03:36:44;151758.19;;;17.02;55.53
12358;BME280;6243;51.244;6.774;2023-04-30T03:39:09;151726.22;;;16.89;55.14
12358;BME280;6243;51.244;6.774;2023-04-30T03:41:36;151769.69;;;17.07;55.21
12358;BME280;6243;51.244;6.774;2023-04-30T03:44:01;151804.19;;;17.20;55.13
12358;BME280;6243;51.244;6.774;2023-04-30T03:46:27;151842.50;;;17.35;55.08
12358;BME280;6243;51.244;6.774;2023-04-30T03:48:52;151893.66;;;17.55;54.84
12358;BME280;6243;51.244;6.774;2023-04-30T03:51:18;151833.59;;;17.32;54.96
12358;BME280;6243;51.244;6.774;2023-04-30T03:53:44;151836.13;;;17.33;54.48
12358;BME280;6243;51.244;6.774;2023-04-30T03:56:11;151860.41;;;17.42;54.82
12358;BME280;6243;51.244;6.774;2023-04-30T03:58:38;151870.63;;;17.46;54.87
12358;BME280;6243;51.244;6.774;2023-04-30T04:01:04;151880.84;;;17.50;55.16
12358;BME280;6243;51.244;6.774;2023-04-30T04:03:29;151875.72;;;17.48;55.01
12358;BME280;6243;51.244;6.774;2023-04-30T04:05:55;151864.22;;;17.44;55.37
12358;BME280;6243;51.244;6.774;2023-04-30T04:08:21;151850.19;;;17.38;55.68
12358;BME280;6243;51.244;6.774;2023-04-30T04:10:46;151730.06;;;16.91;56.58
12358;BME280;6243;51.244;6.774;2023-04-30T04:13:12;151708.34;;;16.82;56.62
12358;BME280;6243;51.244;6.774;2023-04-30T04:15:39;151584.44;;;16.33;57.78
12358;BME280;6243;51.244;6.774;2023-04-30T04:18:04;151613.75;;;16.45;57.41
12358;BME280;6243;51.244;6.774;2023-04-30T04:20:30;151477.16;;;15.91;58.92
12358;BME280;6243;51.244;6.774;2023-04-30T04:22:55;151585.69;;;16.34;57.69
12358;BME280;6243;51.244;6.774;2023-04-30T04:25:21;151655.97;;;16.62;56.38
12358;BME280;6243;51.244;6.774;2023-04-30T04:27:46;151616.34;;;16.46;56.24
12358;BME280;6243;51.244;6.774;2023-04-30T04:30:12;151639.38;;;16.55;56.06
12358;BME280;6243;51.244;6.774;2023-04-30T04:32:38;151592.06;;;16.37;56.06
12358;BME280;6243;51.244;6.774;2023-04-30T04:35:04;151606.13;;;16.42;56.29
12358;BME280;6243;51.244;6.774;2023-04-30T04:37:30;151613.75;;;16.45;56.55
12358;BME280;6243;51.244;6.774;2023-04-30T04:39:56;151640.66;;;16.56;56.12
12358;BME280;6243;51.244;6.774;2023-04-30T04:42:21;151680.25;;;16.71;55.93
12358;BME280;6243;51.244;6.774;2023-04-30T04:44:46;151696.84;;;16.78;56.09
12358;BME280;6243;51.244;6.774;2023-04-30T04:47:12;151795.22;;;17.17;55.48
12358;BME280;6243;51.244;6.774;2023-04-30T04:49:39;151795.22;;;17.17;55.92
12358;BME280;6243;51.244;6.774;2023-04-30T04:52:05;151832.28;;;17.31;55.94
12358;BME280;6243;51.244;6.774;2023-04-30T04:54:30;151866.81;;;17.45;55.98
12358;BME280;6243;51.244;6.774;2023-04-30T04:56:56;151877.00;;;17.49;56.04
12358;BME280;6243;51.244;6.774;2023-04-30T04:59:21;151906.47;;;17.60;55.94
12358;BME280;6243;51.244;6.774;2023-04-30T05:01:47;151919.25;;;17.65;56.15
12358;BME280;6243;51.244;6.774;2023-04-30T05:04:12;151920.50;;;17.66;56.27
12358;BME280;6243;51.244;6.774;2023-04-30T05:06:39;151887.28;;;17.53;56.45
12358;BME280;6243;51.244;6.774;2023-04-30T05:09:05;151933.28;;;17.71;56.36
12358;BME280;6243;51.244;6.774;2023-04-30T05:11:30;151901.34;;;17.58;56.62
12358;BME280;6243;51.244;6.774;2023-04-30T05:13:55;151930.75;;;17.70;56.39
12358;BME280;6243;51.244;6.774;2023-04-30T05:16:21;151952.47;;;17.79;56.48
12358;BME280;6243;51.244;6.774;2023-04-30T05:18:46;151993.38;;;17.95;56.10
12358;BME280;6243;51.244;6.774;2023-04-30T05:21:12;151975.47;;;17.88;56.23
12358;BME280;6243;51.244;6.774;2023-04-30T05:23:39;151990.81;;;17.94;55.88
12358;BME280;6243;51.244;6.774;2023-04-30T05:26:04;152062.44;;;18.22;55.68
12358;BME280;6243;51.244;6.774;2023-04-30T05:28:30;152094.38;;;18.34;55.33
12358;BME280;6243;51.244;6.774;2023-04-30T05:30:55;152123.84;;;18.46;55.14
12358;BME280;6243;51.244;6.774;2023-04-30T05:33:21;152134.13;;;18.50;55.35
12358;BME280;6243;51.244;6.774;2023-04-30T05:35:46;152171.19;;;18.65;54.84
12358;BME280;6243;51.244;6.774;2023-04-30T05:38:12;152190.38;;;18.72;54.78
12358;BME280;6243;51.244;6.774;2023-04-30T05:40:39;152224.94;;;18.86;54.45
12358;BME280;6243;51.244;6.774;2023-04-30T05:43:04;152127.72;;;18.48;55.11
12358;BME280;6243;51.244;6.774;2023-04-30T05:45:30;152187.81;;;18.71;55.02
12358;BME280;6243;51.244;6.774;2023-04-30T05:47:55;152148.16;;;18.56;55.42
12358;BME280;6243;51.244;6.774;2023-04-30T05:50:21;152236.44;;;18.90;54.74
12358;BME280;6243;51.244;6.774;2023-04-30T05:52:46;152278.69;;;19.07;54.78
12358;BME280;6243;51.244;6.774;2023-04-30T05:55:12;152245.38;;;18.94;54.74
12358;BME280;6243;51.244;6.774;2023-04-30T05:57:39;152310.66;;;19.20;54.19
12358;BME280;6243;51.244;6.774;2023-04-30T06:00:06;152420.78;;;19.63;53.16
12358;BME280;6243;51.244;6.774;2023-04-30T06:02:31;152431.00;;;19.67;52.56
12358;BME280;6243;51.244;6.774;2023-04-30T06:04:57;152427.19;;;19.65;52.23
12358;BME280;6243;51.244;6.774;2023-04-30T06:07:22;152410.53;;;19.59;52.97
12358;BME280;6243;51.244;6.774;2023-04-30T06:09:48;152397.72;;;19.54;52.97
12358;BME280;6243;51.244;6.774;2023-04-30T06:12:13;152504.00;;;19.96;52.30
12358;BME280;6243;51.244;6.774;2023-04-30T06:14:40;152544.97;;;20.12;52.16
12358;BME280;6243;51.244;6.774;2023-04-30T06:17:06;152573.19;;;20.23;51.04
12358;BME280;6243;51.244;6.774;2023-04-30T06:19:31;152592.44;;;20.30;51.74
12358;BME280;6243;51.244;6.774;2023-04-30T06:21:57;152501.41;;;19.95;51.71
12358;BME280;6243;51.244;6.774;2023-04-30T06:24:22;152565.44;;;20.20;51.15
12358;BME280;6243;51.244;6.774;2023-04-30T06:26:47;152568.03;;;20.21;51.67
12358;BME280;6243;51.244;6.774;2023-04-30T06:29:13;152635.94;;;20.47;51.75
12358;BME280;6243;51.244;6.774;2023-04-30T06:31:40;152694.88;;;20.71;51.40
12358;BME280;6243;51.244;6.774;2023-04-30T06:34:05;152730.78;;;20.85;51.33
12358;BME280;6243;51.244;6.774;2023-04-30T06:36:31;152784.66;;;21.06;50.98
12358;BME280;6243;51.244;6.774;2023-04-30T06:38:56;152848.69;;;21.31;50.52
12358;BME280;6243;51.244;6.774;2023-04-30T06:41:22;152833.31;;;21.25;50.74
12358;BME280;6243;51.244;6.774;2023-04-30T06:43:47;152888.47;;;21.47;50.56
12358;BME280;6243;51.244;6.774;2023-04-30T06:46:13;152953.81;;;21.72;50.17
12358;BME280;6243;51.244;6.774;2023-04-30T06:48:39;153020.56;;;21.99;49.71
12358;BME280;6243;51.244;6.774;2023-04-30T06:51:05;153050.06;;;22.10;49.70
12358;BME280;6243;51.244;6.774;2023-04-30T06:53:30;153069.31;;;22.18;49.10
12358;BME280;6243;51.244;6.774;2023-04-30T06:55:56;153139.81;;;22.45;48.78
12358;BME280;6243;51.244;6.774;2023-04-30T06:58:21;153147.53;;;22.48;48.06
12358;BME280;6243;51.244;6.774;2023-04-30T07:00:47;153169.31;;;22.57;47.47
12358;BME280;6243;51.244;6.774;2023-04-30T07:03:12;153134.69;;;22.43;47.55
12358;BME280;6243;51.244;6.774;2023-04-30T07:05:39;153153.94;;;22.51;48.16
12358;BME280;6243;51.244;6.774;2023-04-30T07:08:05;153133.38;;;22.43;47.61
12358;BME280;6243;51.244;6.774;2023-04-30T07:10:30;153210.44;;;22.73;47.71
12358;BME280;6243;51.244;6.774;2023-04-30T07:12:56;153223.25;;;22.78;47.58
12358;BME280;6243;51.244;6.774;2023-04-30T07:15:22;153257.91;;;22.92;48.05
12358;BME280;6243;51.244;6.774;2023-04-30T07:17:47;153259.19;;;22.92;47.64
12358;BME280;6243;51.244;6.774;2023-04-30T07:20:13;153305.41;;;23.10;47.67
12358;BME280;6243;51.244;6.774;2023-04-30T07:22:40;153340.06;;;23.24;48.04
12358;BME280;6243;51.244;6.774;2023-04-30T07:25:06;153379.88;;;23.40;47.10
12358;BME280;6243;51.244;6.774;2023-04-30T07:27:32;153505.69;;;23.89;45.96
12358;BME280;6243;51.244;6.774;2023-04-30T07:29:58;153554.56;;;24.08;45.88
12358;BME280;6243;51.244;6.774;2023-04-30T07:32:23;153582.81;;;24.19;46.17
12358;BME280;6243;51.244;6.774;2023-04-30T07:34:49;153659.88;;;24.49;45.76
12358;BME280;6243;51.244;6.774;2023-04-30T07:37:14;153716.41;;;24.72;44.82
12358;BME280;6243;51.244;6.774;2023-04-30T07:39:41;153734.44;;;24.79;44.30
12358;BME280;6243;51.244;6.774;2023-04-30T07:42:07;153647.03;;;24.44;44.17
12358;BME280;6243;51.244;6.774;2023-04-30T07:44:32;153728.00;;;24.76;44.34
12358;BME280;6243;51.244;6.774;2023-04-30T07:46:58;153715.16;;;24.71;44.94
12358;BME280;6243;51.244;6.774;2023-04-30T07:49:24;153697.16;;;24.64;45.33
12358;BME280;6243;51.244;6.774;2023-04-30T07:51:49;153746.00;;;24.83;44.69
12358;BME280;6243;51.244;6.774;2023-04-30T07:54:15;153841.13;;;25.20;43.43
12358;BME280;6243;51.244;6.774;2023-04-30T07:56:41;153862.97;;;25.29;43.74
12358;BME280;6243;51.244;6.774;2023-04-30T07:59:07;153865.53;;;25.30;43.21
12358;BME280;6243;51.244;6.774;2023-04-30T08:01:32;153802.59;;;25.05;43.42
12358;BME280;6243;51.244;6.774;2023-04-30T08:03:58;153877.13;;;25.34;42.93
12358;BME280;6243;51.244;6.774;2023-04-30T08:06:24;154006.97;;;25.85;42.63
12358;BME280;6243;51.244;6.774;2023-04-30T08:08:49;153875.81;;;25.34;42.37
12358;BME280;6243;51.244;6.774;2023-04-30T08:11:15;154046.88;;;26.01;42.56
12358;BME280;6243;51.244;6.774;2023-04-30T08:13:42;154160.09;;;26.45;41.27
12358;BME280;6243;51.244;6.774;2023-04-30T08:16:07;154086.78;;;26.17;40.96
12358;BME280;6243;51.244;6.774;2023-04-30T08:18:33;154185.84;;;26.55;41.34
12358;BME280;6243;51.244;6.774;2023-04-30T08:20:59;154189.69;;;26.57;41.32
12358;BME280;6243;51.244;6.774;2023-04-30T08:23:24;154286.25;;;26.95;41.50
12358;BME280;6243;51.244;6.774;2023-04-30T08:25:50;154217.97;;;26.68;41.12
12358;BME280;6243;51.244;6.774;2023-04-30T08:28:15;154248.91;;;26.80;40.59
12358;BME280;6243;51.244;6.774;2023-04-30T08:30:42;154297.84;;;26.99;39.96
12358;BME280;6243;51.244;6.774;2023-04-30T08:33:08;154439.44;;;27.55;40.44
12358;BME280;6243;51.244;6.774;2023-04-30T08:35:33;154467.75;;;27.66;39.47
12358;BME280;6243;51.244;6.774;2023-04-30T08:37:59;154436.88;;;27.54;39.76
12358;BME280;6243;51.244;6.774;2023-04-30T08:40:25;154138.22;;;26.37;40.17
12358;BME280;6243;51.244;6.774;2023-04-30T08:42:57;154381.44;;;27.32;39.65
12358;BME280;6243;51.244;6.774;2023-04-30T08:45:25;154462.59;;;27.64;38.00
12358;BME280;6243;51.244;6.774;2023-04-30T08:47:52;154382.75;;;27.32;38.45
12358;BME280;6243;51.244;6.774;2023-04-30T08:50:17;154246.31;;;26.79;38.52
12358;BME280;6243;51.244;6.774;2023-04-30T08:52:43;154400.84;;;27.39;39.83
12358;BME280;6243;51.244;6.774;2023-04-30T08:55:08;154449.72;;;27.59;39.74
12358;BME280;6243;51.244;6.774;2023-04-30T08:57:35;154533.41;;;27.91;39.78
12358;BME280;6243;51.244;6.774;2023-04-30T09:00:00;154568.22;;;28.05;37.77
12358;BME280;6243;51.244;6.774;2023-04-30T09:02:26;154305.53;;;27.02;37.70
12358;BME280;6243;51.244;6.774;2023-04-30T09:04:53;154439.44;;;27.55;39.23
12358;BME280;6243;51.244;6.774;2023-04-30T09:07:19;154534.72;;;27.92;40.46
12358;BME280;6243;51.244;6.774;2023-04-30T09:09:51;154584.97;;;28.11;40.27
12358;BME280;6243;51.244;6.774;2023-04-30T09:12:17;154664.84;;;28.43;39.42
12358;BME280;6243;51.244;6.774;2023-04-30T09:14:57;154760.19;;;28.80;38.79
12358;BME280;6243;51.244;6.774;2023-04-30T09:17:23;154810.47;;;29.00;38.95
12358;BME280;6243;51.244;6.774;2023-04-30T09:19:48;154809.19;;;28.99;38.75
12358;BME280;6243;51.244;6.774;2023-04-30T09:22:22;154776.94;;;28.87;38.63
12358;BME280;6243;51.244;6.774;2023-04-30T09:24:49;154801.44;;;28.96;39.24
12358;BME280;6243;51.244;6.774;2023-04-30T09:27:16;154787.28;;;28.91;37.57
12358;BME280;6243;51.244;6.774;2023-04-30T09:29:41;154851.72;;;29.16;38.60
12358;BME280;6243;51.244;6.774;2023-04-30T09:32:07;154947.09;;;29.53;37.69
12358;BME280;6243;51.244;6.774;2023-04-30T09:34:33;154974.22;;;29.64;37.40
12358;BME280;6243;51.244;6.774;2023-04-30T09:36:59;154858.22;;;29.18;36.30
12358;BME280;6243;51.244;6.774;2023-04-30T09:39:26;154872.38;;;29.24;37.24
12358;BME280;6243;51.244;6.774;2023-04-30T09:41:51;154948.41;;;29.54;37.67
12358;BME280;6243;51.244;6.774;2023-04-30T09:44:26;154939.41;;;29.50;37.89
12358;BME280;6243;51.244;6.774;2023-04-30T09:46:53;154903.31;;;29.36;37.93
12358;BME280;6243;51.244;6.774;2023-04-30T09:49:20;154893.00;;;29.32;38.22
12358;BME280;6243;51.244;6.774;2023-04-30T09:51:52;155043.88;;;29.91;37.86
12358;BME280;6243;51.244;6.774;2023-04-30T09:54:19;155021.91;;;29.82;37.44
12358;BME280;6243;51.244;6.774;2023-04-30T09:56:48;155033.56;;;29.87;36.89
12358;BME280;6243;51.244;6.774;2023-04-30T09:59:15;154993.50;;;29.71;37.08
12358;BME280;6243;51.244;6.774;2023-04-30T10:01:42;154854.25;;;29.17;36.34
12358;BME280;6243;51.244;6.774;2023-04-30T10:04:08;154903.31;;;29.36;35.78
12358;BME280;6243;51.244;6.774;2023-04-30T10:06:33;154868.50;;;29.22;35.76
12358;BME280;6243;51.244;6.774;2023-04-30T10:09:02;154791.13;;;28.92;35.59
12358;BME280;6243;51.244;6.774;2023-04-30T10:11:32;154779.53;;;28.88;36.24
12358;BME280;6243;51.244;6.774;2023-04-30T10:14:03;154846.56;;;29.14;36.70
12358;BME280;6243;51.244;6.774;2023-04-30T10:16:37;154561.78;;;28.02;36.93
12358;BME280;6243;51.244;6.774;2023-04-30T10:19:11;154561.78;;;28.02;36.64
12358;BME280;6243;51.244;6.774;2023-04-30T10:21:39;154569.53;;;28.05;37.12
12358;BME280;6243;51.244;6.774;2023-04-30T10:24:05;154645.53;;;28.35;37.07
12358;BME280;6243;51.244;6.774;2023-04-30T10:26:31;154626.19;;;28.28;36.15
12358;BME280;6243;51.244;6.774;2023-04-30T10:28:58;154655.81;;;28.39;36.46
12358;BME280;6243;51.244;6.774;2023-04-30T10:31:26;154536.00;;;27.92;36.08
12358;BME280;6243;51.244;6.774;2023-04-30T10:33:59;154704.81;;;28.58;36.84
12358;BME280;6243;51.244;6.774;2023-04-30T10:36:37;154703.47;;;28.58;36.80
12358;BME280;6243;51.244;6.774;2023-04-30T10:39:03;154508.94;;;27.82;36.53
12358;BME280;6243;51.244;6.774;2023-04-30T10:41:30;154461.34;;;27.63;36.58
12358;BME280;6243;51.244;6.774;2023-04-30T10:43:56;154632.63;;;28.30;36.39
12358;BME280;6243;51.244;6.774;2023-04-30T10:46:22;154709.97;;;28.60;37.02
12358;BME280;6243;51.244;6.774;2023-04-30T10:48:51;154681.59;;;28.49;36.52
12358;BME280;6243;51.244;6.774;2023-04-30T10:51:17;154659.72;;;28.41;36.62
12358;BME280;6243;51.244;6.774;2023-04-30T10:53:43;154642.91;;;28.34;35.91
12358;BME280;6243;51.244;6.774;2023-04-30T10:56:08;154622.34;;;28.26;35.61
12358;BME280;6243;51.244;6.774;2023-04-30T10:58:35;154690.59;;;28.53;35.93
12358;BME280;6243;51.244;6.774;2023-04-30T11:01:03;154811.72;;;29.00;35.67
12358;BME280;6243;51.244;6.774;2023-04-30T11:03:29;154657.09;;;28.40;35.98
12358;BME280;6243;51.244;6.774;2023-04-30T11:05:57;154725.41;;;28.66;36.78
12358;BME280;6243;51.244;6.774;2023-04-30T11:08:31;154718.97;;;28.64;36.38
12358;BME280;6243;51.244;6.774;2023-04-30T11:10:58;154515.38;;;27.84;37.04
12358;BME280;6243;51.244;6.774;2023-04-30T11:13:25;154752.50;;;28.77;36.30
12358;BME280;6243;51.244;6.774;2023-04-30T11:15:51;154775.69;;;28.86;35.33
12358;BME280;6243;51.244;6.774;2023-04-30T11:18:17;154608.16;;;28.21;35.70
12358;BME280;6243;51.244;6.774;2023-04-30T11:20:48;154494.81;;;27.76;36.35
12358;BME280;6243;51.244;6.774;2023-04-30T11:23:17;154564.38;;;28.03;35.71
12358;BME280;6243;51.244;6.774;2023-04-30T11:25:47;154635.22;;;28.31;35.23
12358;BME280;6243;51.244;6.774;2023-04-30T11:28:14;154717.72;;;28.63;34.96
12358;BME280;6243;51.244;6.774;2023-04-30T11:30:41;154366.03;;;27.26;36.50
12358;BME280;6243;51.244;6.774;2023-04-30T11:33:14;154369.88;;;27.27;36.66
12358;BME280;6243;51.244;6.774;2023-04-30T11:35:39;154456.16;;;27.61;35.93
12358;BME280;6243;51.244;6.774;2023-04-30T11:38:06;154492.22;;;27.75;35.84
12358;BME280;6243;51.244;6.774;2023-04-30T11:40:35;154523.13;;;27.87;36.17
12358;BME280;6243;51.244;6.774;2023-04-30T11:43:01;154281.06;;;26.93;37.06
12358;BME280;6243;51.244;6.774;2023-04-30T11:45:26;154341.56;;;27.16;36.47
12358;BME280;6243;51.244;6.774;2023-04-30T11:47:53;154563.09;;;28.03;36.50
12358;BME280;6243;51.244;6.774;2023-04-30T11:50:20;154417.56;;;27.46;36.75
12358;BME280;6243;51.244;6.774;2023-04-30T11:52:48;154354.44;;;27.21;35.62
12358;BME280;6243;51.244;6.774;2023-04-30T11:55:16;154295.25;;;26.98;36.17
12358;BME280;6243;51.244;6.774;2023-04-30T11:57:45;154372.47;;;27.28;35.88
12358;BME280;6243;51.244;6.774;2023-04-30T12:00:13;154291.41;;;26.97;35.41
12358;BME280;6243;51.244;6.774;2023-04-30T12:02:39;154054.56;;;26.04;36.63
12358;BME280;6243;51.244;6.774;2023-04-30T12:05:11;154192.28;;;26.58;36.81
12358;BME280;6243;51.244;6.774;2023-04-30T12:07:36;154438.13;;;27.54;36.47
12358;BME280;6243;51.244;6.774;2023-04-30T12:10:11;154517.97;;;27.85;35.57
12358;BME280;6243;51.244;6.774;2023-04-30T12:12:37;154489.66;;;27.74;34.69
12358;BME280;6243;51.244;6.774;2023-04-30T12:15:10;154514.09;;;27.84;35.57
12358;BME280;6243;51.244;6.774;2023-04-30T12:17:36;154514.09;;;27.84;35.85
12358;BME280;6243;51.244;6.774;2023-04-30T12:20:02;154508.94;;;27.82;36.36
12358;BME280;6243;51.244;6.774;2023-04-30T12:22:27;154425.28;;;27.49;36.22
12358;BME280;6243;51.244;6.774;2023-04-30T12:24:53;154399.53;;;27.39;35.56
12358;BME280;6243;51.244;6.774;2023-04-30T12:27:20;154238.63;;;26.76;36.62
12358;BME280;6243;51.244;6.774;2023-04-30T12:29:46;154315.81;;;27.06;36.76
12358;BME280;6243;51.244;6.774;2023-04-30T12:32:11;154215.44;;;26.67;36.63
12358;BME280;6243;51.244;6.774;2023-04-30T12:34:37;154322.25;;;27.09;36.30
12358;BME280;6243;51.244;6.774;2023-04-30T12:37:02;154403.38;;;27.40;36.54
12358;BME280;6243;51.244;6.774;2023-04-30T12:39:32;154362.13;;;27.24;36.20
12358;BME280;6243;51.244;6.774;2023-04-30T12:41:59;154511.53;;;27.83;35.82
12358;BME280;6243;51.244;6.774;2023-04-30T12:44:26;154632.63;;;28.30;36.18
12358;BME280;6243;51.244;6.774;2023-04-30T12:46:53;154530.88;;;27.90;35.79
12358;BME280;6243;51.244;6.774;2023-04-30T12:49:25;154659.72;;;28.41;35.20
12358;BME280;6243;51.244;6.774;2023-04-30T12:51:56;154658.41;;;28.40;35.26
12358;BME280;6243;51.244;6.774;2023-04-30T12:54:25;154353.16;;;27.21;36.35
12358;BME280;6243;51.244;6.774;2023-04-30T12:56:58;154519.28;;;27.86;35.97
12358;BME280;6243;51.244;6.774;2023-04-30T12:59:25;154563.09;;;28.03;35.18